createdAt,value
2022-12-06T00:00:24.660Z,13.53
2022-12-06T00:02:52.775Z,17.40
2022-12-06T00:05:20.946Z,15.80
2022-12-06T00:07:50.141Z,16.50
2022-12-06T00:10:17.927Z,15.43
2022-12-06T00:12:45.602Z,14.30
2022-12-06T00:15:13.567Z,11.63
2022-12-06T00:17:43.281Z,11.43
2022-12-06T00:20:13.038Z,11.13
2022-12-06T00:22:45.115Z,11.17
2022-12-06T00:25:12.844Z,11.23
2022-12-06T00:27:40.575Z,10.33
2022-12-06T00:30:09.594Z,9.63
2022-12-06T00:32:37.533Z,9.33
2022-12-06T00:35:07.444Z,9.87
2022-12-06T00:37:35.180Z,10.13
2022-12-06T00:40:02.978Z,7.70
2022-12-06T00:42:31.599Z,10.60
2022-12-06T00:44:59.937Z,8.17
2022-12-06T00:47:27.786Z,7.60
2022-12-06T00:49:55.733Z,7.00
2022-12-06T00:52:25.395Z,7.63
2022-12-06T00:54:53.568Z,6.87
2022-12-06T00:57:21.646Z,7.40
2022-12-06T00:59:49.760Z,6.27
2022-12-06T01:02:17.761Z,6.83
2022-12-06T01:04:45.506Z,8.13
2022-12-06T01:07:13.379Z,7.23
2022-12-06T01:09:42.576Z,7.13
2022-12-06T01:12:10.518Z,7.97
2022-12-06T01:14:38.369Z,7.47
2022-12-06T01:17:06.482Z,10.63
2022-12-06T01:19:34.535Z,9.50
2022-12-06T01:22:02.444Z,8.77
2022-12-06T01:24:30.532Z,9.07
2022-12-06T01:26:59.715Z,8.37
2022-12-06T01:29:27.882Z,8.80
2022-12-06T01:31:55.944Z,7.87
2022-12-06T01:34:24.040Z,7.73
2022-12-06T01:36:52.039Z,9.30
2022-12-06T01:39:20.697Z,6.60
2022-12-06T01:41:49.396Z,7.80
2022-12-06T01:44:36.232Z,9.23
2022-12-06T01:47:06.602Z,10.83
2022-12-06T01:49:36.068Z,9.13
2022-12-06T01:52:06.885Z,10.50
2022-12-06T01:54:37.281Z,9.50
2022-12-06T01:57:06.958Z,8.83
2022-12-06T01:59:34.807Z,8.93
2022-12-06T02:02:02.891Z,8.63
2022-12-06T02:04:33.441Z,9.17
2022-12-06T02:07:02.230Z,9.10
2022-12-06T02:09:30.719Z,7.03
2022-12-06T02:11:58.809Z,7.10
2022-12-06T02:14:28.871Z,8.37
2022-12-06T02:17:04.289Z,6.87
2022-12-06T02:19:44.382Z,7.77
2022-12-06T02:22:14.900Z,6.57
2022-12-06T02:25:06.906Z,6.63
2022-12-06T02:27:51.025Z,6.50
2022-12-06T02:30:30.493Z,7.13
2022-12-06T02:33:00.352Z,6.10
2022-12-06T02:35:31.952Z,6.50
2022-12-06T02:38:07.689Z,5.53
2022-12-06T02:40:41.745Z,5.97
2022-12-06T02:43:14.333Z,5.47
2022-12-06T02:45:48.744Z,5.10
2022-12-06T02:48:17.507Z,6.47
2022-12-06T02:50:48.578Z,6.37
2022-12-06T02:53:21.384Z,5.13
2022-12-06T02:55:51.364Z,7.97
2022-12-06T02:58:19.508Z,4.90
2022-12-06T03:00:51.285Z,7.50
2022-12-06T03:03:25.779Z,7.03
2022-12-06T03:06:04.939Z,8.43
2022-12-06T03:08:36.463Z,6.33
2022-12-06T03:11:05.072Z,6.27
2022-12-06T03:13:35.801Z,7.40
2022-12-06T03:16:08.673Z,9.77
2022-12-06T03:18:38.984Z,11.20
2022-12-06T03:21:08.672Z,8.13
2022-12-06T03:23:38.817Z,13.30
2022-12-06T03:26:08.133Z,10.57
2022-12-06T03:28:37.639Z,11.83
2022-12-06T03:31:09.048Z,12.63
2022-12-06T03:33:38.608Z,12.90
2022-12-06T03:36:09.987Z,14.63
2022-12-06T03:38:38.886Z,13.30
2022-12-06T03:41:07.745Z,7.93
2022-12-06T03:43:36.009Z,6.80
2022-12-06T03:46:08.811Z,9.20
2022-12-06T03:48:42.487Z,8.00
2022-12-06T03:51:12.611Z,9.23
2022-12-06T03:53:47.475Z,9.73
2022-12-06T03:56:15.605Z,10.40
2022-12-06T03:58:43.620Z,9.30
2022-12-06T04:01:12.251Z,8.90
2022-12-06T04:03:43.814Z,10.57
2022-12-06T04:06:12.131Z,11.10
2022-12-06T04:08:40.096Z,12.63
2022-12-06T04:11:10.102Z,10.73
2022-12-06T04:13:38.200Z,26.00
2022-12-06T04:16:27.266Z,20.90
2022-12-06T04:18:57.194Z,21.83
2022-12-06T04:21:42.657Z,24.67
2022-12-06T04:24:10.876Z,24.77
2022-12-06T04:26:39.104Z,26.00
2022-12-06T04:29:24.544Z,22.33
2022-12-06T04:32:09.850Z,14.77
2022-12-06T04:34:56.781Z,14.03
2022-12-06T04:37:42.256Z,11.23
2022-12-06T04:40:10.450Z,10.03
2022-12-06T04:42:56.035Z,9.33
2022-12-06T04:45:25.287Z,10.70
2022-12-06T04:47:53.971Z,10.97
2022-12-06T04:50:23.099Z,12.37
2022-12-06T04:52:50.833Z,9.33
2022-12-06T04:55:18.600Z,11.63
2022-12-06T04:57:46.370Z,10.17
2022-12-06T05:00:15.151Z,10.80
2022-12-06T05:02:43.011Z,13.67
2022-12-06T05:05:11.288Z,13.33
2022-12-06T05:07:41.059Z,15.17
2022-12-06T05:10:10.420Z,14.07
2022-12-06T05:12:38.392Z,11.57
2022-12-06T05:15:06.372Z,16.73
2022-12-06T05:17:34.088Z,15.03
2022-12-06T05:20:04.481Z,18.07
2022-12-06T05:22:34.112Z,27.07
2022-12-06T05:25:03.397Z,14.93
2022-12-06T05:27:35.818Z,13.10
2022-12-06T05:30:04.439Z,16.37
2022-12-06T05:32:32.443Z,11.03
2022-12-06T05:35:00.161Z,9.87
2022-12-06T05:37:28.894Z,14.00
2022-12-06T05:39:56.616Z,11.73
2022-12-06T05:42:26.703Z,12.27
2022-12-06T05:44:54.344Z,13.00
2022-12-06T05:47:22.206Z,12.37
2022-12-06T05:49:50.723Z,14.27
2022-12-06T05:52:20.889Z,13.37
2022-12-06T05:54:48.609Z,16.30
2022-12-06T05:57:16.325Z,11.33
2022-12-06T05:59:45.577Z,9.87
2022-12-06T06:02:16.380Z,12.73
2022-12-06T06:04:44.603Z,11.47
2022-12-06T06:07:13.155Z,11.43
2022-12-06T06:09:40.920Z,11.43
2022-12-06T06:12:12.509Z,16.07
2022-12-06T06:14:41.507Z,15.20
2022-12-06T06:17:10.624Z,16.67
2022-12-06T06:19:38.742Z,15.63
2022-12-06T06:22:11.542Z,15.63
2022-12-06T06:24:40.489Z,19.17
2022-12-06T06:27:08.342Z,18.67
2022-12-06T06:29:42.059Z,15.33
2022-12-06T06:32:14.679Z,17.87
2022-12-06T06:34:42.757Z,24.47
2022-12-06T06:37:11.051Z,19.47
2022-12-06T06:39:38.799Z,18.87
2022-12-06T06:42:07.185Z,21.93
2022-12-06T06:44:37.798Z,16.57
2022-12-06T06:47:06.208Z,17.07
2022-12-06T06:49:35.677Z,18.00
2022-12-06T06:52:03.680Z,12.87
2022-12-06T06:54:31.503Z,19.07
2022-12-06T06:56:59.330Z,14.27
2022-12-06T06:59:27.171Z,15.93
2022-12-06T07:01:55.403Z,17.67
2022-12-06T07:04:23.245Z,16.40
2022-12-06T07:06:52.733Z,17.73
2022-12-06T07:09:20.665Z,11.53
2022-12-06T07:11:48.679Z,11.93
2022-12-06T07:14:16.412Z,11.77
2022-12-06T07:16:44.371Z,15.23
2022-12-06T07:19:12.285Z,16.30
2022-12-06T07:21:40.642Z,14.13
2022-12-06T07:24:10.199Z,16.33
2022-12-06T07:26:38.112Z,13.60
2022-12-06T07:29:06.345Z,12.97
2022-12-06T07:31:34.348Z,13.87
2022-12-06T07:34:03.083Z,19.13
2022-12-06T07:36:31.871Z,14.00
2022-12-06T07:39:01.766Z,12.13
2022-12-06T07:41:48.592Z,9.23
2022-12-06T07:44:35.086Z,15.27
2022-12-06T07:47:03.526Z,8.90
2022-12-06T07:49:31.204Z,9.17
2022-12-06T07:51:59.381Z,9.57
2022-12-06T07:54:27.640Z,7.57
2022-12-06T07:56:57.702Z,10.50
2022-12-06T07:59:25.768Z,9.70
2022-12-06T08:01:58.014Z,6.37
2022-12-06T08:04:26.273Z,8.87
2022-12-06T08:06:54.345Z,8.60
2022-12-06T08:09:22.036Z,9.23
2022-12-06T08:11:49.768Z,9.23
2022-12-06T08:14:19.029Z,7.93
2022-12-06T08:16:46.992Z,8.03
2022-12-06T08:19:15.247Z,6.00
2022-12-06T08:21:44.255Z,8.80
2022-12-06T08:24:12.512Z,6.70
2022-12-06T08:26:40.764Z,10.20
2022-12-06T08:29:08.418Z,7.03
2022-12-06T08:31:38.049Z,6.13
2022-12-06T08:34:05.820Z,9.67
2022-12-06T08:36:34.346Z,8.77
2022-12-06T08:39:02.478Z,8.20
2022-12-06T08:41:48.398Z,7.33
2022-12-06T08:44:17.366Z,10.67
2022-12-06T08:46:47.002Z,12.60
2022-12-06T08:49:15.671Z,11.30
2022-12-06T08:51:43.821Z,9.97
2022-12-06T08:54:14.235Z,13.43
2022-12-06T08:56:42.331Z,13.50
2022-12-06T08:59:10.292Z,12.30
2022-12-06T09:01:41.103Z,11.03
2022-12-06T09:04:11.258Z,7.80
2022-12-06T09:06:40.293Z,12.27
2022-12-06T09:09:09.182Z,10.30
2022-12-06T09:11:37.201Z,10.43
2022-12-06T09:14:05.070Z,8.90
2022-12-06T09:16:32.797Z,7.53
2022-12-06T09:19:01.059Z,11.17
2022-12-06T09:21:30.743Z,7.17
2022-12-06T09:24:00.531Z,11.73
2022-12-06T09:26:29.145Z,15.07
2022-12-06T09:28:57.160Z,7.57
2022-12-06T09:31:25.821Z,8.27
2022-12-06T09:33:53.867Z,11.93
2022-12-06T09:36:23.876Z,10.37
2022-12-06T09:38:55.085Z,9.17
2022-12-06T09:41:34.115Z,11.93
2022-12-06T09:44:08.747Z,8.80
2022-12-06T09:46:43.236Z,8.37
2022-12-06T09:49:27.402Z,5.90
2022-12-06T09:52:03.129Z,7.73
2022-12-06T09:54:39.601Z,7.97
2022-12-06T09:57:09.109Z,11.97
2022-12-06T09:59:44.099Z,10.33
2022-12-06T10:02:24.163Z,9.70
2022-12-06T10:04:59.675Z,8.37
2022-12-06T10:07:32.406Z,7.63
2022-12-06T10:10:08.363Z,11.10
2022-12-06T10:12:45.094Z,9.00
2022-12-06T10:15:20.766Z,8.53
2022-12-06T10:17:55.439Z,11.87
2022-12-06T10:20:27.423Z,12.13
2022-12-06T10:22:59.684Z,20.10
2022-12-06T10:25:33.644Z,10.03
2022-12-06T10:28:04.089Z,7.40
2022-12-06T10:30:34.498Z,7.97
2022-12-06T10:33:06.651Z,7.53
2022-12-06T10:35:41.289Z,7.23
2022-12-06T10:38:15.405Z,10.50
2022-12-06T10:40:49.406Z,10.07
2022-12-06T10:43:19.280Z,8.57
2022-12-06T10:46:09.321Z,10.63
2022-12-06T10:48:39.956Z,9.77
2022-12-06T10:51:10.994Z,8.60
2022-12-06T10:53:41.965Z,10.10
2022-12-06T10:56:18.467Z,13.50
2022-12-06T10:58:48.385Z,10.50
2022-12-06T11:01:18.445Z,10.73
2022-12-06T11:03:57.361Z,19.17
2022-12-06T11:06:30.033Z,7.73
2022-12-06T11:08:58.720Z,9.47
2022-12-06T11:11:29.856Z,12.13
2022-12-06T11:14:01.389Z,11.57
2022-12-06T11:16:33.017Z,8.97
2022-12-06T11:19:04.231Z,12.70
2022-12-06T11:21:34.602Z,10.13
2022-12-06T11:24:04.721Z,9.90
2022-12-06T11:26:39.605Z,14.20
2022-12-06T11:29:11.710Z,18.57
2022-12-06T11:31:43.702Z,8.63
2022-12-06T11:34:15.758Z,11.60
2022-12-06T11:36:43.863Z,10.57
2022-12-06T11:39:13.032Z,10.20
2022-12-06T11:41:44.044Z,8.87
2022-12-06T11:44:14.709Z,7.77
2022-12-06T11:46:42.560Z,7.60
2022-12-06T11:49:16.283Z,6.87
2022-12-06T11:51:44.098Z,8.53
2022-12-06T11:54:20.622Z,11.03
2022-12-06T11:56:50.485Z,10.13
2022-12-06T11:59:29.333Z,12.17
2022-12-06T12:01:58.075Z,9.37
2022-12-06T12:04:35.721Z,9.77
2022-12-06T12:07:05.542Z,10.37
2022-12-06T12:09:36.995Z,11.47
2022-12-06T12:12:08.151Z,10.13
2022-12-06T12:14:40.819Z,10.87
2022-12-06T12:17:17.510Z,11.17
2022-12-06T12:19:47.296Z,11.37
2022-12-06T12:22:16.028Z,9.67
2022-12-06T12:25:18.651Z,11.00
2022-12-06T12:27:36.007Z,9.50
2022-12-06T12:30:26.691Z,9.73
2022-12-06T12:33:15.279Z,12.27
2022-12-06T12:35:44.314Z,8.30
2022-12-06T12:38:16.821Z,10.50
2022-12-06T12:40:47.362Z,12.03
2022-12-06T12:43:21.078Z,10.70
2022-12-06T12:46:06.806Z,11.47
2022-12-06T12:48:35.443Z,9.00
2022-12-06T12:51:04.783Z,10.27
2022-12-06T12:53:33.720Z,9.57
2022-12-06T12:56:07.321Z,7.80
2022-12-06T12:58:36.581Z,9.33
2022-12-06T13:01:07.688Z,13.63
2022-12-06T13:03:53.728Z,9.90
2022-12-06T13:06:27.797Z,10.67
2022-12-06T13:08:57.619Z,9.57
2022-12-06T13:11:25.977Z,11.17
2022-12-06T13:13:56.343Z,8.70
2022-12-06T13:16:28.329Z,6.93
2022-12-06T13:18:57.540Z,8.67
2022-12-06T13:21:26.799Z,13.00
2022-12-06T13:23:56.435Z,9.50
2022-12-06T13:26:26.691Z,10.07
2022-12-06T13:29:00.310Z,13.87
2022-12-06T13:31:31.519Z,9.00
2022-12-06T13:34:02.246Z,13.17
2022-12-06T13:36:33.112Z,11.20
2022-12-06T13:39:02.132Z,11.40
2022-12-06T13:41:59.053Z,8.07
2022-12-06T13:44:42.099Z,11.43
2022-12-06T13:47:28.985Z,10.53
2022-12-06T13:49:57.318Z,20.70
2022-12-06T13:52:40.388Z,13.97
2022-12-06T13:55:22.982Z,12.40
2022-12-06T13:57:51.544Z,16.67
2022-12-06T14:00:34.617Z,12.63
2022-12-06T14:03:05.241Z,13.70
2022-12-06T14:08:19.705Z,15.97
2022-12-06T14:10:47.477Z,13.40
2022-12-06T14:13:16.657Z,15.70
2022-12-06T14:15:47.492Z,13.60
2022-12-06T14:18:20.470Z,12.57
2022-12-06T14:20:49.479Z,13.63
2022-12-06T14:23:29.206Z,13.73
2022-12-06T14:26:18.932Z,15.37
2022-12-06T14:28:46.988Z,15.33
2022-12-06T14:31:19.184Z,13.87
2022-12-06T14:33:48.813Z,17.57
2022-12-06T14:36:22.712Z,13.80
2022-12-06T14:38:55.488Z,22.67
2022-12-06T14:41:46.903Z,11.70
2022-12-06T14:44:17.397Z,16.53
2022-12-06T14:46:46.415Z,16.13
2022-12-06T14:49:35.268Z,21.57
2022-12-06T14:52:03.084Z,16.87
2022-12-06T14:54:35.742Z,19.63
2022-12-06T14:57:05.051Z,18.17
2022-12-06T15:00:12.707Z,20.47
2022-12-06T15:02:24.689Z,15.57
2022-12-06T15:04:54.371Z,20.60
2022-12-06T15:07:39.098Z,21.73
2022-12-06T15:10:11.093Z,18.20
2022-12-06T15:12:57.249Z,20.37
2022-12-06T15:15:39.061Z,22.07
2022-12-06T15:18:21.545Z,21.70
2022-12-06T15:20:51.190Z,21.50
2022-12-06T15:23:29.076Z,24.27
2022-12-06T15:25:57.497Z,24.80
2022-12-06T15:28:25.425Z,24.20
2022-12-06T15:30:53.933Z,24.13
2022-12-06T15:33:22.785Z,27.40
2022-12-06T15:35:52.668Z,26.50
2022-12-06T15:38:20.933Z,25.30
2022-12-06T15:40:50.768Z,22.93
2022-12-06T15:43:26.977Z,23.10
2022-12-06T15:45:56.277Z,22.30
2022-12-06T15:48:25.075Z,23.03
2022-12-06T15:51:12.283Z,19.67
2022-12-06T15:53:42.281Z,29.50
2022-12-06T15:56:12.969Z,23.17
2022-12-06T15:58:40.928Z,27.43
2022-12-06T16:01:15.634Z,30.53
2022-12-06T16:03:43.594Z,26.17
2022-12-06T16:06:14.915Z,29.60
2022-12-06T16:08:43.065Z,25.83
2022-12-06T16:11:12.549Z,25.70
2022-12-06T16:13:42.317Z,33.43
2022-12-06T16:16:10.148Z,32.00
2022-12-06T16:18:37.910Z,28.63
2022-12-06T16:21:06.296Z,26.17
2022-12-06T16:26:43.983Z,27.17
2022-12-06T16:29:13.411Z,24.17
2022-12-06T16:31:41.474Z,27.60
2022-12-06T16:34:09.891Z,34.70
2022-12-06T16:36:53.977Z,44.83
2022-12-06T16:39:26.246Z,40.13
2022-12-06T16:41:54.439Z,34.53
2022-12-06T16:44:22.616Z,34.73
2022-12-06T16:46:52.176Z,35.83
2022-12-06T16:52:09.542Z,44.00
2022-12-06T16:54:41.250Z,33.73
2022-12-06T16:57:10.194Z,37.03
2022-12-06T16:59:38.995Z,34.80
2022-12-06T17:02:17.595Z,33.47
2022-12-06T17:04:45.351Z,37.17
2022-12-06T17:07:13.373Z,35.67
2022-12-06T17:09:42.655Z,30.30
2022-12-06T17:12:13.272Z,28.87
2022-12-06T17:14:42.754Z,28.13
2022-12-06T17:17:13.166Z,31.87
2022-12-06T17:19:42.755Z,28.50
2022-12-06T17:22:13.595Z,26.30
2022-12-06T17:24:43.738Z,32.67
2022-12-06T17:27:15.238Z,28.50
2022-12-06T17:29:43.648Z,31.47
2022-12-06T17:32:11.928Z,32.53
2022-12-06T17:34:39.793Z,35.90
2022-12-06T17:37:07.787Z,34.93
2022-12-06T17:39:35.529Z,29.03
2022-12-06T17:42:22.659Z,30.40
2022-12-06T17:44:51.078Z,34.83
2022-12-06T17:47:19.889Z,31.23
2022-12-06T17:49:47.975Z,36.90
2022-12-06T17:52:16.398Z,33.00
2022-12-06T17:54:44.565Z,39.63
2022-12-06T17:57:16.313Z,38.23
2022-12-06T17:59:44.071Z,41.43
2022-12-06T18:02:15.566Z,31.70
2022-12-06T18:04:44.418Z,33.27
2022-12-06T18:07:12.484Z,32.63
2022-12-06T18:09:40.496Z,36.37
2022-12-06T18:12:09.179Z,36.10
2022-12-06T18:14:38.910Z,30.23
2022-12-06T18:17:06.655Z,29.73
2022-12-06T18:19:34.888Z,33.07
2022-12-06T18:22:02.903Z,30.33
2022-12-06T18:24:35.359Z,32.47
2022-12-06T18:27:04.769Z,26.80
2022-12-06T18:29:33.251Z,24.20
2022-12-06T18:32:02.556Z,30.90
2022-12-06T18:34:30.924Z,34.37
2022-12-06T18:36:58.878Z,35.73
2022-12-06T18:39:28.068Z,32.53
2022-12-06T18:41:56.833Z,32.20
2022-12-06T18:44:25.978Z,34.57
2022-12-06T18:46:53.647Z,32.83
2022-12-06T18:49:22.973Z,35.40
2022-12-06T18:51:51.489Z,42.20
2022-12-06T18:54:20.115Z,38.60
2022-12-06T18:56:47.909Z,35.10
2022-12-06T18:59:15.643Z,31.33
2022-12-06T19:01:45.757Z,34.33
2022-12-06T19:04:16.750Z,31.93
2022-12-06T19:06:46.157Z,23.17
2022-12-06T19:09:17.425Z,34.07
2022-12-06T19:11:46.271Z,23.90
2022-12-06T19:14:14.938Z,26.60
2022-12-06T19:16:44.479Z,23.80
2022-12-06T19:19:16.756Z,23.00
2022-12-06T19:21:47.503Z,26.40
2022-12-06T19:24:19.081Z,15.17
2022-12-06T19:26:47.003Z,24.33
2022-12-06T19:29:16.615Z,21.80
2022-12-06T19:31:46.208Z,25.47
2022-12-06T19:34:15.746Z,20.30
2022-12-06T19:36:43.868Z,24.00
2022-12-06T19:39:15.160Z,21.00
2022-12-06T19:42:01.161Z,21.30
2022-12-06T19:44:30.289Z,24.30
2022-12-06T19:46:58.436Z,19.80
2022-12-06T19:49:26.981Z,20.77
2022-12-06T19:51:55.194Z,24.03
2022-12-06T19:54:26.162Z,20.13
2022-12-06T19:56:57.046Z,22.13
2022-12-06T19:59:26.058Z,22.70
2022-12-06T20:01:54.779Z,26.07
2022-12-06T20:04:23.926Z,21.10
2022-12-06T20:06:51.912Z,26.33
2022-12-06T20:09:20.542Z,23.33
2022-12-06T20:12:05.628Z,26.73
2022-12-06T20:14:41.909Z,22.30
2022-12-06T20:17:11.153Z,24.93
2022-12-06T20:19:43.262Z,24.10
2022-12-06T20:22:11.033Z,23.70
2022-12-06T20:24:38.885Z,24.07
2022-12-06T20:27:08.193Z,25.53
2022-12-06T20:29:36.171Z,21.20
2022-12-06T20:32:04.359Z,27.70
2022-12-06T20:34:34.503Z,28.90
2022-12-06T20:37:04.910Z,27.27
2022-12-06T20:39:35.875Z,28.47
2022-12-06T20:42:05.632Z,24.13
2022-12-06T20:44:35.859Z,28.23
2022-12-06T20:47:03.774Z,26.13
2022-12-06T20:49:31.622Z,23.47
2022-12-06T20:52:02.291Z,25.90
2022-12-06T20:54:30.410Z,23.80
2022-12-06T20:56:58.623Z,24.57
2022-12-06T20:59:26.525Z,29.83
2022-12-06T21:01:56.478Z,24.63
2022-12-06T21:04:24.267Z,27.93
2022-12-06T21:06:52.584Z,22.67
2022-12-06T21:09:20.632Z,22.60
2022-12-06T21:11:48.538Z,27.03
2022-12-06T21:14:17.805Z,27.67
2022-12-06T21:16:45.510Z,28.40
2022-12-06T21:19:16.843Z,29.07
2022-12-06T21:21:45.644Z,29.77
2022-12-06T21:24:15.260Z,32.33
2022-12-06T21:26:43.085Z,27.40
2022-12-06T21:29:13.623Z,32.87
2022-12-06T21:31:41.501Z,26.23
2022-12-06T21:34:09.645Z,26.03
2022-12-06T21:36:39.938Z,27.57
2022-12-06T21:39:07.799Z,34.63
2022-12-06T21:41:38.469Z,35.27
2022-12-06T21:44:06.912Z,29.77
2022-12-06T21:46:34.971Z,34.90
2022-12-06T21:49:03.024Z,31.80
2022-12-06T21:51:32.057Z,30.10
2022-12-06T21:54:01.659Z,36.03
2022-12-06T21:56:32.897Z,30.27
2022-12-06T21:59:01.523Z,36.47
2022-12-06T22:01:31.395Z,35.17
2022-12-06T22:04:00.888Z,38.00
2022-12-06T22:06:29.927Z,32.27
2022-12-06T22:08:59.971Z,34.43
2022-12-06T22:11:29.900Z,35.53
2022-12-06T22:13:58.983Z,33.80
2022-12-06T22:16:28.083Z,34.30
2022-12-06T22:18:56.305Z,34.23
2022-12-06T22:21:26.033Z,33.03
2022-12-06T22:23:54.187Z,33.23
2022-12-06T22:26:23.304Z,31.70
2022-12-06T22:28:52.484Z,29.23
2022-12-06T22:31:21.101Z,27.80
2022-12-06T22:33:49.553Z,31.60
2022-12-06T22:36:17.721Z,33.63
2022-12-06T22:38:45.565Z,34.50
2022-12-06T22:41:13.978Z,30.10
2022-12-06T22:43:41.711Z,32.47
2022-12-06T22:46:11.957Z,31.30
2022-12-06T22:48:40.007Z,34.47
2022-12-06T22:51:08.767Z,32.10
2022-12-06T22:53:36.521Z,35.63
2022-12-06T22:56:04.389Z,26.73
2022-12-06T22:58:32.956Z,38.27
2022-12-06T23:01:01.225Z,31.83
2022-12-06T23:03:31.298Z,27.47
2022-12-06T23:06:00.712Z,35.37
2022-12-06T23:08:28.825Z,30.23
2022-12-06T23:11:04.510Z,31.93
2022-12-06T23:13:32.358Z,27.17
2022-12-06T23:16:01.066Z,30.93
2022-12-06T23:18:29.508Z,21.70
2022-12-06T23:21:05.992Z,25.57
2022-12-06T23:23:35.708Z,30.67
2022-12-06T23:26:04.060Z,28.63
2022-12-06T23:28:32.288Z,28.67
2022-12-06T23:31:04.030Z,26.47
2022-12-06T23:33:32.688Z,29.53
2022-12-06T23:36:07.458Z,29.57
2022-12-06T23:38:37.749Z,27.13
2022-12-06T23:41:07.326Z,29.77
2022-12-06T23:43:35.310Z,29.90
2022-12-06T23:46:07.456Z,29.07
2022-12-06T23:48:36.220Z,29.83
2022-12-06T23:51:05.958Z,31.87
2022-12-06T23:53:33.856Z,32.87
2022-12-06T23:56:02.483Z,29.60
2022-12-06T23:58:30.591Z,31.13
